Latest Weather Observations for Shepparton

IDV60801

Issued at 10:02 pm EDT Monday 2 March 2015 (issued every 30 minutes, with the page automatically refreshed every 10 minutes)

About weather observations | Map of weather stations | Latest weather observations for VIC | Other Formats
Station Details ID: 081125 Name: SHEPPARTON AIRPORT Lat: -36.43 Lon: 145.39 Height: 113.9 m
Data from the previous 72 hours. | See also: Recent months at Shepparton
Date/Time
EDT
Temp
°C
App
Temp
°C
Dew
Point
Rel
Hum
%
Delta-T
°C
Wind Press
QNH
hPa
Press
MSL
hPa
Rain
since 9 am
mm
Dir
 
Spd
km/h
Gust
km/h
Spd
kts
Gust
kts
02/10:00pm 21.3 21.1 8.9 45 6.6 CALM 0 0 0 0 1013.8 1013.5 0.0
02/09:30pm 22.2 20.7 9.0 43 7.1 SW 7 9 4 5 1014.1 1013.8 0.0
02/09:00pm 22.5 20.6 9.0 42 7.3 SW 9 11 5 6 1013.7 1013.4 0.0
02/08:30pm 23.0 20.6 8.7 40 7.7 SW 11 13 6 7 1013.4 1013.1 0.0
02/08:00pm 23.6 21.5 8.1 37 8.2 SW 9 9 5 5 1013.0 1012.7 0.0
02/07:30pm 25.1 22.5 7.7 33 9.3 WSW 11 15 6 8 1013.0 1012.7 0.0
02/07:00pm 26.0 24.2 7.1 30 10.0 SSW 6 11 3 6 1012.7 1012.3 0.0
02/06:30pm 26.6 25.8 6.6 28 10.5 CALM 0 0 0 0 1012.7 1012.3 0.0
02/05:30pm 27.1 25.5 6.5 27 10.9 E 4 11 2 6 1012.2 1011.8 0.0
02/05:00pm 26.4 23.5 6.4 28 10.5 NNW 11 17 6 9 1012.7 1012.3 0.0
02/04:30pm 27.1 25.0 6.5 27 10.9 E 7 15 4 8 1012.7 1012.3 0.0
02/04:00pm 27.1 24.2 6.5 27 10.9 NE 11 20 6 11 1012.9 1012.5 0.0
02/03:30pm 26.6 23.8 7.1 29 10.4 NW 11 20 6 11 1013.8 1013.5 0.0
02/03:00pm 25.8 22.9 6.4 29 10.1 NNE 11 19 6 10 1014.3 1014.0 0.0
02/02:30pm 26.7 23.5 6.7 28 10.6 NNE 13 22 7 12 1014.5 1014.2 0.0
02/02:00pm 26.2 23.6 7.7 31 9.9 NNE 11 20 6 11 1014.7 1014.4 0.0
02/01:30pm 25.3 22.2 7.4 32 9.5 N 13 20 7 11 1015.2 1014.9 0.0
02/01:00pm 24.7 21.6 7.4 33 9.1 ENE 13 20 7 11 1015.6 1015.3 0.0
02/12:30pm 24.2 21.2 7.8 35 8.7 N 13 19 7 10 1016.1 1015.8 0.0
02/12:00pm 23.5 20.6 8.0 37 8.2 N 13 20 7 11 1017.1 1016.8 0.0
02/11:30am 22.7 20.2 8.0 39 7.7 N 11 20 6 11 1017.5 1017.2 0.0
02/11:00am 21.3 19.2 8.2 43 6.9 NE 9 17 5 9 1017.9 1017.6 0.0
02/10:30am 20.2 17.6 7.9 45 6.4 NE 11 19 6 10 1018.1 1017.8 0.0
02/10:00am 18.7 16.1 7.8 49 5.6 ESE 11 15 6 8 1018.2 1017.9 0.0
02/09:30am 16.8 14.6 7.7 55 4.6 SSE 9 15 5 8 1018.1 1017.8 0.0
02/09:00am 15.1 13.0 8.3 64 3.4 SE 9 13 5 7 1017.7 1017.4 0.2
02/08:30am 13.5 11.4 8.1 70 2.7 SE 9 13 5 7 1017.7 1017.4 0.2
02/08:00am 12.0 10.4 8.8 81 1.6 S 7 11 4 6 1017.4 1017.1 0.2
02/07:30am 9.8 8.5 7.6 86 1.1 SSE 4 7 2 4 1017.4 1017.1 0.2
02/07:00am 9.1 7.1 7.1 87 0.9 SSE 7 9 4 5 1016.8 1016.5 0.2
02/06:30am 9.4 7.0 7.2 86 1.0 SSE 9 11 5 6 1016.3 1016.0 0.2
02/05:30am 10.8 8.6 7.9 82 1.4 S 9 13 5 7 1016.4 1016.1 0.2
02/05:00am 11.6 8.4 8.3 80 1.6 S 15 19 8 10 1016.4 1016.1 0.2
02/04:30am 11.8 9.0 8.5 80 1.6 S 13 17 7 9 1016.0 1015.7 0.2
02/04:00am 12.3 8.8 8.8 79 1.8 S 17 20 9 11 1016.3 1016.0 0.2
02/03:30am 12.5 8.7 9.0 79 1.8 S 19 24 10 13 1016.4 1016.1 0.2
02/03:00am 12.9 8.9 9.2 78 1.9 S 20 28 11 15 1016.4 1016.1 0.2
02/02:30am 13.2 9.3 9.3 77 2.0 S 20 28 11 15 1016.4 1016.1 0.2
02/02:00am 13.5 10.1 9.2 75 2.2 S 17 24 9 13 1017.0 1016.7 0.2
02/01:30am 14.1 10.2 9.3 73 2.5 S 20 26 11 14 1016.6 1016.3 0.2
02/01:00am 14.5 10.2 9.3 71 2.7 S 22 30 12 16 1016.5 1016.2 0.2
02/12:30am 14.8 9.6 9.0 68 3.0 S 26 33 14 18 1015.7 1015.4 0.2
02/12:00am 15.5 10.3 8.7 64 3.5 S 26 35 14 19 1015.4 1015.1 0.2
 
Date/Time
EDT
Temp
°C
App
Temp
°C
Dew
Point
Rel
Hum
%
Delta-T
°C
Wind Press
QNH
hPa
Press
MSL
hPa
Rain
since 9 am
mm
Dir
 
Spd
km/h
Gust
km/h
Spd
kts
Gust
kts
01/11:30pm 16.0 10.5 7.7 58 4.2 SSW 26 35 14 19 1015.8 1015.5 0.2
01/11:00pm 16.3 11.9 7.3 55 4.5 S 20 30 11 16 1015.9 1015.6 0.2
01/10:30pm 16.8 12.4 7.4 54 4.7 SSW 20 26 11 14 1016.0 1015.7 0.2
01/10:00pm 17.1 12.7 7.5 53 4.8 S 20 26 11 14 1015.8 1015.5 0.2
01/09:30pm 17.8 13.5 7.2 50 5.3 S 19 26 10 14 1015.9 1015.6 0.2
01/09:00pm 18.7 13.9 7.2 47 5.8 S 22 35 12 19 1015.3 1015.0 0.2
01/08:30pm 19.4 13.7 6.5 43 6.5 S 26 37 14 20 1014.9 1014.6 0.2
01/08:00pm 20.0 13.0 6.0 40 7.0 S 32 41 17 22 1014.5 1014.2 0.2
01/07:30pm 21.1 13.7 5.1 35 7.9 S 33 43 18 23 1014.2 1013.9 0.2
01/07:00pm 22.1 14.4 5.5 34 8.3 S 35 50 19 27 1014.1 1013.8 0.2
01/06:51pm 22.3 14.9 4.8 32 8.7 S 33 52 18 28 1014.1 1013.8 0.2
01/06:30pm 22.7 14.7 5.6 33 8.6 SSE 37 50 20 27 1013.8 1013.5 0.2
01/06:00pm 23.5 15.9 5.9 32 9.0 S 35 48 19 26 1013.3 1013.0 0.2
01/05:30pm 24.0 16.6 4.9 29 9.6 S 33 48 18 26 1013.0 1012.7 0.2
01/05:00pm 24.0 16.2 4.9 29 9.6 S 35 56 19 30 1012.8 1012.4 0.2
01/04:57pm 23.8 16.4 5.2 30 9.4 S 33 52 18 28 1012.6 1012.2 0.2
01/04:30pm 24.5 16.2 6.3 31 9.4 S 39 54 21 29 1012.4 1012.0 0.2
01/04:00pm 24.5 17.0 6.3 31 9.4 S 35 56 19 30 1012.1 1011.7 0.2
01/03:56pm 24.7 17.7 6.9 32 9.3 S 33 52 18 28 1012.1 1011.7 0.2
01/03:30pm 24.9 17.9 8.4 35 8.9 S 35 50 19 27 1012.3 1011.9 0.2
01/03:08pm 25.1 18.3 7.7 33 9.3 SSW 33 52 18 28 1012.5 1012.1 0.2
01/03:00pm 23.7 16.0 6.9 34 8.8 S 37 52 20 28 1012.6 1012.2 0.2
01/02:39pm 24.5 17.3 7.6 34 9.0 S 35 54 19 29 1012.3 1011.9 0.2
01/02:30pm 23.8 15.2 6.6 33 8.9 S 41 52 22 28 1012.3 1011.9 0.2
01/02:15pm 23.8 16.4 6.6 33 8.9 S 35 54 19 29 1012.2 1011.8 0.2
01/02:00pm 23.7 15.9 6.5 33 8.9 S 37 50 20 27 1012.2 1011.8 0.2
01/01:30pm 23.3 16.0 7.4 36 8.3 S 35 56 19 30 1012.1 1011.7 0.2
01/01:22pm 23.6 16.1 6.4 33 8.9 S 35 56 19 30 1012.1 1011.7 0.2
01/01:00pm 23.1 15.5 7.6 37 8.1 S 37 48 20 26 1012.2 1011.8 0.2
01/12:30pm 22.9 15.8 8.2 39 7.8 S 35 50 19 27 1012.2 1011.8 0.2
01/12:00pm 22.2 15.6 8.7 42 7.2 S 33 46 18 25 1012.0 1011.6 0.2
01/11:30am 22.2 15.3 8.7 42 7.2 SSW 35 44 19 24 1011.8 1011.4 0.0
01/11:00am 21.4 14.5 9.0 45 6.6 S 35 44 19 24 1011.4 1011.0 0.0
01/10:30am 20.3 14.1 9.5 50 5.8 S 32 46 17 25 1011.1 1010.6 0.0
01/10:00am 19.6 13.7 10.3 55 5.0 S 32 41 17 22 1010.7 1010.2 0.0
01/09:30am 18.8 13.6 11.6 63 4.0 S 30 44 16 24 1010.3 1009.8 0.0
01/09:00am 17.6 14.1 12.3 71 2.9 S 22 35 12 19 1009.8 1009.4 1.0
01/08:30am 16.7 13.2 12.3 75 2.4 S 22 30 12 16 1009.4 1008.9 1.0
01/08:00am 16.0 12.9 12.2 78 2.1 SSW 20 30 11 16 1009.0 1008.5 1.0
01/07:30am 15.5 11.2 11.9 79 2.0 SW 26 32 14 17 1008.6 1008.1 1.0
01/07:00am 15.5 10.1 12.1 80 1.9 SSW 32 41 17 22 1007.8 1007.3 1.0
01/06:30am 15.9 10.5 12.1 78 2.1 SSW 32 48 17 26 1007.2 1006.7 1.0
01/06:00am 16.9 12.4 13.8 82 1.8 SSW 30 48 16 26 1006.5 1006.0 1.0
01/05:58am 16.9 12.0 13.8 82 1.8 SSW 32 50 17 27 1006.4 1005.9 1.0
01/05:30am 18.2 14.5 16.0 87 1.3 SSW 30 44 16 24 1005.7 1005.2 1.0
01/05:24am 18.2 14.6 16.2 88 1.2 SSW 30 48 16 26 1005.7 1005.2 1.0
01/05:00am 19.0 16.8 16.8 87 1.3 SSW 24 33 13 18 1005.3 1004.8 1.0
01/04:30am 19.4 18.4 17.9 91 0.9 SW 20 28 11 15 1004.8 1004.3 0.8
01/04:00am 19.3 19.0 18.3 94 0.6 SW 17 22 9 12 1004.6 1004.1 0.8
01/03:30am 19.4 18.5 18.2 93 0.7 W 20 33 11 18 1005.1 1004.6 0.8
01/03:00am 19.6 21.2 18.3 92 0.8 W 7 9 4 5 1004.1 1003.6 0.8
01/02:30am 19.9 21.0 17.9 88 1.2 E 9 13 5 7 1003.7 1003.2 0.8
01/02:00am 20.1 22.6 18.2 89 1.2 ESE 2 11 1 6 1004.5 1004.0 0.8
01/01:30am 20.0 19.4 17.6 86 1.5 ESE 17 22 9 12 1004.1 1003.6 0.6
01/01:00am 21.3 20.0 16.7 75 2.8 SSE 19 26 10 14 1005.9 1005.4 0.2
01/12:30am 21.5 19.6 16.7 74 2.9 S 22 32 12 17 1005.6 1005.1 0.2
01/12:00am 21.9 19.5 16.4 71 3.4 S 24 37 13 20 1005.4 1004.9 0.2
 
Date/Time
EDT
Temp
°C
App
Temp
°C
Dew
Point
Rel
Hum
%
Delta-T
°C
Wind Press
QNH
hPa
Press
MSL
hPa
Rain
since 9 am
mm
Dir
 
Spd
km/h
Gust
km/h
Spd
kts
Gust
kts
28/11:30pm 22.2 18.1 16.5 70 3.5 S 33 46 18 25 1005.7 1005.2 0.2
28/11:00pm 22.3 17.5 16.6 70 3.5 S 37 50 20 27 1004.9 1004.4 0.2
28/10:44pm 24.1 18.3 15.9 60 5.0 SSW 41 57 22 31 1004.9 1004.4 0.2
28/10:38pm 24.1 20.8 16.1 61 4.9 SW 28 57 15 31 1004.8 1004.3 0.2
28/10:30pm 24.0 22.1 15.8 60 5.0 SW 20 32 11 17 1004.6 1004.1 0.2
28/10:26pm 23.7 20.8 16.0 62 4.7 SW 26 46 14 25 1004.4 1003.9 0.2
28/10:10pm 27.7 24.1 10.4 34 9.8 NW 20 57 11 31 1003.8 1003.3 0.0
28/10:09pm 28.5 24.4 7.7 27 11.3 NW 19 50 10 27 1003.5 1003.0 0.0
28/10:00pm 28.6 24.3 7.2 26 11.6 NNE 19 28 10 15 1001.4 1000.8 0.0
28/09:30pm 28.6 24.3 7.2 26 11.5 NNE 19 26 10 14 1001.1 1000.5 0.0
28/09:00pm 27.7 24.4 8.1 29 10.7 NNE 15 20 8 11 1001.3 1000.7 0.0
28/08:30pm 28.3 25.4 8.1 28 11.0 NNE 13 17 7 9 1001.6 1001.0 0.0
28/08:00pm 29.6 26.3 8.1 26 11.9 NNE 15 19 8 10 1001.7 1001.1 0.0
28/07:30pm 30.5 27.5 7.7 24 12.5 NE 13 17 7 9 1001.8 1001.2 0.0
28/07:00pm 32.2 28.3 7.1 21 13.8 NE 17 24 9 13 1001.8 1001.2 0.0
28/06:30pm 33.1 29.8 6.4 19 14.5 NE 13 19 7 10 1002.3 1001.8 0.0
28/06:00pm 33.2 29.5 6.5 19 14.6 ENE 15 20 8 11 1002.5 1002.0 0.0
28/05:30pm 33.4 29.0 5.0 17 15.1 NNE 17 32 9 17 1002.9 1002.4 0.0
28/05:00pm 33.0 29.1 5.5 18 14.8 NNE 15 20 8 11 1003.2 1002.7 0.0
28/04:30pm 32.4 27.9 4.2 17 14.7 NNE 17 24 9 13 1003.6 1003.1 0.0
28/04:00pm 32.6 28.3 3.5 16 15.1 NNE 15 26 8 14 1003.9 1003.4 0.0
28/03:30pm 31.9 28.4 5.4 19 14.1 ENE 13 20 7 11 1004.3 1003.8 0.0
28/03:00pm 30.7 26.7 6.6 22 13.0 NE 17 22 9 12 1004.7 1004.2 0.0
28/02:30pm 31.4 27.4 6.5 21 13.5 ENE 17 22 9 12 1005.0 1004.5 0.0
28/02:00pm 29.4 26.6 8.5 27 11.6 ESE 13 19 7 10 1005.6 1005.1 0.0
28/01:30pm 28.7 26.5 9.4 30 10.8 ESE 11 13 6 7 1006.0 1005.5 0.0
28/01:00pm 28.6 27.1 9.3 30 10.8 WSW 7 13 4 7 1006.9 1006.4 0.0
28/12:30pm 29.1 26.7 8.7 28 11.3 WSW 11 17 6 9 1007.8 1007.3 0.0
28/12:00pm 28.2 26.5 9.9 32 10.3 WNW 9 15 5 8 1008.3 1007.8 0.0
28/11:30am 26.9 26.6 10.2 35 9.4 W 2 7 1 4 1008.3 1007.8 0.0
28/11:00am 26.2 25.7 10.8 38 8.7 ESE 4 9 2 5 1008.4 1007.9 0.0
28/10:30am 25.3 25.3 11.1 41 8.0 NE 2 7 1 4 1008.3 1007.8 0.0
28/10:00am 24.2 24.0 11.9 46 7.0 N 4 7 2 4 1008.2 1007.7 0.0
28/09:30am 23.1 23.8 12.1 50 6.3 CALM 0 6 0 3 1008.2 1007.7 0.0
28/09:00am 20.3 21.6 14.2 68 3.6 CALM 0 6 0 3 1008.2 1007.7 0.0
28/08:30am 20.0 21.2 13.9 68 3.5 CALM 0 0 0 0 1007.9 1007.4 0.0
28/08:00am 19.4 20.7 14.0 71 3.1 CALM 0 6 0 3 1007.6 1007.1 0.0
28/07:30am 19.0 18.9 13.8 72 3.0 ENE 7 9 4 5 1007.1 1006.6 0.0
28/07:00am 18.8 19.0 14.1 74 2.7 ENE 6 9 3 5 1007.1 1006.6 0.0
28/06:30am 19.0 20.1 13.6 71 3.1 CALM 0 0 0 0 1007.2 1006.7 0.0
28/06:00am 19.2 18.6 13.4 69 3.3 W 9 13 5 7 1007.3 1006.8 0.0
28/05:30am 19.4 19.2 13.6 69 3.3 NW 7 9 4 5 1006.7 1006.2 0.0
28/05:00am 19.5 19.2 13.4 68 3.5 SE 7 11 4 6 1006.4 1005.9 0.0
28/04:30am 19.7 19.1 13.6 68 3.5 SSE 9 15 5 8 1006.3 1005.8 0.0
28/04:00am 19.9 18.6 13.6 67 3.6 SSE 13 17 7 9 1007.1 1006.6 0.0
28/03:30am 20.0 19.1 13.7 67 3.6 SSE 11 13 6 7 1007.7 1007.2 0.0
28/03:00am 20.3 18.9 13.3 64 4.0 SSE 13 19 7 10 1007.6 1007.1 0.0
28/02:30am 20.4 20.6 12.9 62 4.3 S 4 9 2 5 1008.1 1007.6 0.0
28/02:00am 20.8 19.5 12.5 59 4.7 WSW 11 13 6 7 1008.4 1007.9 0.0
28/01:30am 20.9 19.5 12.3 58 4.9 S 11 15 6 8 1008.1 1007.6 0.0
28/01:00am 21.3 19.0 11.6 54 5.4 S 15 22 8 12 1008.4 1007.9 0.0
28/12:30am 21.9 19.8 11.0 50 6.0 S 13 19 7 10 1008.6 1008.1 0.0
28/12:00am 22.4 19.4 10.5 47 6.6 S 17 24 9 13 1008.6 1008.1 0.0
 
Date/Time
EDT
Temp
°C
App
Temp
°C
Dew
Point
Rel
Hum
%
Delta-T
°C
Wind Press
QNH
hPa
Press
MSL
hPa
Rain
since 9 am
mm
Dir
 
Spd
km/h
Gust
km/h
Spd
kts
Gust
kts
27/11:30pm 22.7 20.6 9.8 44 7.0 S 11 15 6 8 1008.5 1008.0 0.0
27/11:00pm 22.6 20.9 9.7 44 7.0 S 9 11 5 6 1008.5 1008.0 0.0
27/10:30pm 22.7 22.2 7.7 38 7.9 CALM 0 6 0 3 1008.5 1008.0 0.0

Other Formats:

Comma delimited format used in spreadsheet applications
http://www.bom.gov.au/fwo/IDV60801/IDV60801.94875.axf

JavaScript Object Notation format (JSON) in row-major order
http://www.bom.gov.au/fwo/IDV60801/IDV60801.94875.json